Schelle, Belgium
Current Conditions -  °F | °C
As of 11:50 AM on Tuesday 21 Oct 2014 (Local Time) from EBAW Reporting Station
Rain Showers Rain Showers  
Wind Chill: 55°   Ceiling: 1200
Heat Index: 55°   Visibility: 4mi
Dew Point: 52°   Wind: 16mph
Humidity: 88%   Direction: 210°SSW
Pressure: 29.62"   Gusts: NA
Location:  51.13°N, 4.34°E
Report Text: EBAW 210950Z 21014KT 180V240 7000 -SHRA SCT009 BKN012 13/11 Q1003 TEMPO 21015G30KT
Loading
Personal Weather Stations






























Interactive Weather Map
Tropical Storm Tracking
New forecast layout! Learn more

10-Day Weather Forecast

Advertisements
Track Severe Weather on mobile